sensor_id;sensor_type;location;lat;lon;timestamp;temperature;humidity
19799;DHT22;10059;59.850;10.454;2022-12-18T00:00:48;-1.70;99.90
19799;DHT22;10059;59.850;10.454;2022-12-18T00:03:15;-1.80;99.90
19799;DHT22;10059;59.850;10.454;2022-12-18T00:05:49;-1.60;99.90
19799;DHT22;10059;59.850;10.454;2022-12-18T00:08:19;-1.70;99.90
19799;DHT22;10059;59.850;10.454;2022-12-18T00:10:46;-1.70;99.90
19799;DHT22;10059;59.850;10.454;2022-12-18T00:13:13;-1.60;99.90
19799;DHT22;10059;59.850;10.454;2022-12-18T00:15:41;-1.70;99.90
19799;DHT22;10059;59.850;10.454;2022-12-18T00:18:09;-1.60;99.90
19799;DHT22;10059;59.850;10.454;2022-12-18T00:20:36;-1.70;99.90
19799;DHT22;10059;59.850;10.454;2022-12-18T00:23:03;-1.70;99.90
19799;DHT22;10059;59.850;10.454;2022-12-18T00:25:32;-1.60;99.90
19799;DHT22;10059;59.850;10.454;2022-12-18T00:28:00;-1.60;99.90
19799;DHT22;10059;59.850;10.454;2022-12-18T00:30:27;-1.60;99.90
19799;DHT22;10059;59.850;10.454;2022-12-18T00:32:55;-1.50;99.90
19799;DHT22;10059;59.850;10.454;2022-12-18T00:35:22;-1.50;99.90
19799;DHT22;10059;59.850;10.454;2022-12-18T00:37:49;-1.40;99.90
19799;DHT22;10059;59.850;10.454;2022-12-18T00:40:16;-1.50;99.90
19799;DHT22;10059;59.850;10.454;2022-12-18T00:42:42;-1.40;99.90
19799;DHT22;10059;59.850;10.454;2022-12-18T00:45:24;-1.50;99.90
19799;DHT22;10059;59.850;10.454;2022-12-18T00:47:52;-1.50;99.90
19799;DHT22;10059;59.850;10.454;2022-12-18T00:50:20;-1.50;99.90
19799;DHT22;10059;59.850;10.454;2022-12-18T00:52:47;-1.60;99.90
19799;DHT22;10059;59.850;10.454;2022-12-18T00:55:15;-1.70;99.90
19799;DHT22;10059;59.850;10.454;2022-12-18T00:57:42;-1.70;99.90
19799;DHT22;10059;59.850;10.454;2022-12-18T01:00:11;-1.60;99.90
19799;DHT22;10059;59.850;10.454;2022-12-18T01:02:39;-1.60;99.90
19799;DHT22;10059;59.850;10.454;2022-12-18T01:05:07;-1.50;99.90
19799;DHT22;10059;59.850;10.454;2022-12-18T01:07:35;-1.50;99.90
19799;DHT22;10059;59.850;10.454;2022-12-18T01:10:03;-1.50;99.90
19799;DHT22;10059;59.850;10.454;2022-12-18T01:12:31;-1.40;99.90
19799;DHT22;10059;59.850;10.454;2022-12-18T01:14:58;-1.30;99.90
19799;DHT22;10059;59.850;10.454;2022-12-18T01:17:25;-1.30;99.90
19799;DHT22;10059;59.850;10.454;2022-12-18T01:19:51;-1.30;99.90
19799;DHT22;10059;59.850;10.454;2022-12-18T01:22:18;-1.20;99.90
19799;DHT22;10059;59.850;10.454;2022-12-18T01:24:46;-1.20;99.90
19799;DHT22;10059;59.850;10.454;2022-12-18T01:27:13;-1.20;99.90
19799;DHT22;10059;59.850;10.454;2022-12-18T01:29:40;-1.20;99.90
19799;DHT22;10059;59.850;10.454;2022-12-18T01:32:08;-1.20;99.90
19799;DHT22;10059;59.850;10.454;2022-12-18T01:34:35;-1.20;99.90
19799;DHT22;10059;59.850;10.454;2022-12-18T01:37:02;-1.20;99.90
19799;DHT22;10059;59.850;10.454;2022-12-18T01:39:29;-1.30;99.90
19799;DHT22;10059;59.850;10.454;2022-12-18T01:41:58;-1.40;99.90
19799;DHT22;10059;59.850;10.454;2022-12-18T01:44:52;-1.60;99.90
19799;DHT22;10059;59.850;10.454;2022-12-18T01:47:21;-1.40;99.90
19799;DHT22;10059;59.850;10.454;2022-12-18T01:49:50;-1.30;99.90
19799;DHT22;10059;59.850;10.454;2022-12-18T01:52:17;-1.30;99.90
19799;DHT22;10059;59.850;10.454;2022-12-18T01:54:46;-1.40;99.90
19799;DHT22;10059;59.850;10.454;2022-12-18T01:57:15;-1.40;99.90
19799;DHT22;10059;59.850;10.454;2022-12-18T01:59:44;-1.40;99.90
19799;DHT22;10059;59.850;10.454;2022-12-18T02:02:12;-1.60;99.90
19799;DHT22;10059;59.850;10.454;2022-12-18T02:04:39;-1.70;99.90
19799;DHT22;10059;59.850;10.454;2022-12-18T02:07:13;-1.80;99.90
19799;DHT22;10059;59.850;10.454;2022-12-18T02:09:46;-1.90;99.90
19799;DHT22;10059;59.850;10.454;2022-12-18T02:12:18;-1.80;99.90
19799;DHT22;10059;59.850;10.454;2022-12-18T02:14:52;-1.70;99.90
19799;DHT22;10059;59.850;10.454;2022-12-18T02:17:21;-1.70;99.90
19799;DHT22;10059;59.850;10.454;2022-12-18T02:20:02;-1.60;99.90
19799;DHT22;10059;59.850;10.454;2022-12-18T02:22:39;-1.50;99.90
19799;DHT22;10059;59.850;10.454;2022-12-18T02:25:23;-1.30;99.90
19799;DHT22;10059;59.850;10.454;2022-12-18T02:27:53;-1.20;99.90
19799;DHT22;10059;59.850;10.454;2022-12-18T02:30:21;-1.10;99.90
19799;DHT22;10059;59.850;10.454;2022-12-18T02:32:50;-1.20;99.90
19799;DHT22;10059;59.850;10.454;2022-12-18T02:35:23;-1.10;99.90
19799;DHT22;10059;59.850;10.454;2022-12-18T02:37:51;-1.00;99.90
19799;DHT22;10059;59.850;10.454;2022-12-18T02:40:20;-1.10;99.90
19799;DHT22;10059;59.850;10.454;2022-12-18T02:42:48;-1.20;99.90
19799;DHT22;10059;59.850;10.454;2022-12-18T02:45:16;-1.20;99.90
19799;DHT22;10059;59.850;10.454;2022-12-18T02:47:45;-1.30;99.90
19799;DHT22;10059;59.850;10.454;2022-12-18T02:50:18;-1.40;99.90
19799;DHT22;10059;59.850;10.454;2022-12-18T02:52:55;-1.60;99.90
19799;DHT22;10059;59.850;10.454;2022-12-18T02:55:34;-1.60;99.90
19799;DHT22;10059;59.850;10.454;2022-12-18T02:58:10;-1.50;99.90
19799;DHT22;10059;59.850;10.454;2022-12-18T03:00:46;-1.60;99.90
19799;DHT22;10059;59.850;10.454;2022-12-18T03:03:19;-1.60;99.90
19799;DHT22;10059;59.850;10.454;2022-12-18T03:05:52;-1.80;99.90
19799;DHT22;10059;59.850;10.454;2022-12-18T03:08:22;-1.90;99.90
19799;DHT22;10059;59.850;10.454;2022-12-18T03:10:56;-1.80;99.90
19799;DHT22;10059;59.850;10.454;2022-12-18T03:13:28;-1.60;99.90
19799;DHT22;10059;59.850;10.454;2022-12-18T03:16:00;-1.60;99.90
19799;DHT22;10059;59.850;10.454;2022-12-18T03:18:32;-1.70;99.90
19799;DHT22;10059;59.850;10.454;2022-12-18T03:21:04;-1.60;99.90
19799;DHT22;10059;59.850;10.454;2022-12-18T03:23:34;-1.60;99.90
19799;DHT22;10059;59.850;10.454;2022-12-18T03:26:06;-1.50;99.90
19799;DHT22;10059;59.850;10.454;2022-12-18T03:28:37;-1.50;99.90
19799;DHT22;10059;59.850;10.454;2022-12-18T03:31:09;-1.50;99.90
19799;DHT22;10059;59.850;10.454;2022-12-18T03:33:40;-1.40;99.90
19799;DHT22;10059;59.850;10.454;2022-12-18T03:36:08;-1.40;99.90
19799;DHT22;10059;59.850;10.454;2022-12-18T03:38:35;-1.30;99.90
19799;DHT22;10059;59.850;10.454;2022-12-18T03:41:07;-1.20;99.90
19799;DHT22;10059;59.850;10.454;2022-12-18T03:43:43;-1.30;99.90
19799;DHT22;10059;59.850;10.454;2022-12-18T03:46:17;-1.40;99.90
19799;DHT22;10059;59.850;10.454;2022-12-18T03:48:51;-1.30;99.90
19799;DHT22;10059;59.850;10.454;2022-12-18T03:51:23;-1.40;99.90
19799;DHT22;10059;59.850;10.454;2022-12-18T03:53:55;-1.40;99.90
19799;DHT22;10059;59.850;10.454;2022-12-18T03:56:24;-1.30;99.90
19799;DHT22;10059;59.850;10.454;2022-12-18T03:58:52;-1.30;99.90
19799;DHT22;10059;59.850;10.454;2022-12-18T04:01:25;-1.40;99.90
19799;DHT22;10059;59.850;10.454;2022-12-18T04:03:55;-1.50;99.90
19799;DHT22;10059;59.850;10.454;2022-12-18T04:06:23;-1.70;99.90
19799;DHT22;10059;59.850;10.454;2022-12-18T04:08:50;-1.80;99.90
19799;DHT22;10059;59.850;10.454;2022-12-18T04:11:17;-2.00;99.90
19799;DHT22;10059;59.850;10.454;2022-12-18T04:13:44;-2.10;99.90
19799;DHT22;10059;59.850;10.454;2022-12-18T04:16:11;-2.30;99.90
19799;DHT22;10059;59.850;10.454;2022-12-18T04:18:39;-2.20;99.90
19799;DHT22;10059;59.850;10.454;2022-12-18T04:21:06;-2.20;99.90
19799;DHT22;10059;59.850;10.454;2022-12-18T04:23:32;-2.30;99.90
19799;DHT22;10059;59.850;10.454;2022-12-18T04:25:59;-2.40;99.90
19799;DHT22;10059;59.850;10.454;2022-12-18T04:28:26;-2.40;99.90
19799;DHT22;10059;59.850;10.454;2022-12-18T04:30:54;-2.30;99.90
19799;DHT22;10059;59.850;10.454;2022-12-18T04:33:21;-2.30;99.90
19799;DHT22;10059;59.850;10.454;2022-12-18T04:35:49;-2.30;99.90
19799;DHT22;10059;59.850;10.454;2022-12-18T04:38:16;-2.30;99.90
19799;DHT22;10059;59.850;10.454;2022-12-18T04:40:43;-2.10;99.90
19799;DHT22;10059;59.850;10.454;2022-12-18T04:43:10;-2.10;99.90
19799;DHT22;10059;59.850;10.454;2022-12-18T04:45:36;-2.20;99.90
19799;DHT22;10059;59.850;10.454;2022-12-18T04:48:04;-2.20;99.90
19799;DHT22;10059;59.850;10.454;2022-12-18T04:50:30;-2.30;99.90
19799;DHT22;10059;59.850;10.454;2022-12-18T04:52:59;-2.30;99.90
19799;DHT22;10059;59.850;10.454;2022-12-18T04:55:26;-2.10;99.90
19799;DHT22;10059;59.850;10.454;2022-12-18T04:57:53;-2.10;99.90
19799;DHT22;10059;59.850;10.454;2022-12-18T05:00:20;-2.30;99.90
19799;DHT22;10059;59.850;10.454;2022-12-18T05:02:47;-2.40;99.90
19799;DHT22;10059;59.850;10.454;2022-12-18T05:05:14;-2.30;99.90
19799;DHT22;10059;59.850;10.454;2022-12-18T05:07:41;-2.20;99.90
19799;DHT22;10059;59.850;10.454;2022-12-18T05:10:09;-2.20;99.90
19799;DHT22;10059;59.850;10.454;2022-12-18T05:12:36;-2.30;99.90
19799;DHT22;10059;59.850;10.454;2022-12-18T05:15:23;-2.50;99.90
19799;DHT22;10059;59.850;10.454;2022-12-18T05:17:50;-2.60;99.90
19799;DHT22;10059;59.850;10.454;2022-12-18T05:20:17;-2.60;99.90
19799;DHT22;10059;59.850;10.454;2022-12-18T05:22:44;-2.50;99.90
19799;DHT22;10059;59.850;10.454;2022-12-18T05:25:12;-2.50;99.90
19799;DHT22;10059;59.850;10.454;2022-12-18T05:27:39;-2.50;99.90
19799;DHT22;10059;59.850;10.454;2022-12-18T05:30:07;-2.60;99.90
19799;DHT22;10059;59.850;10.454;2022-12-18T05:32:34;-2.60;99.90
19799;DHT22;10059;59.850;10.454;2022-12-18T05:35:01;-2.70;99.90
19799;DHT22;10059;59.850;10.454;2022-12-18T05:37:28;-2.70;99.90
19799;DHT22;10059;59.850;10.454;2022-12-18T05:39:55;-2.50;99.90
19799;DHT22;10059;59.850;10.454;2022-12-18T05:42:23;-2.60;99.90
19799;DHT22;10059;59.850;10.454;2022-12-18T05:44:50;-2.70;99.90
19799;DHT22;10059;59.850;10.454;2022-12-18T05:47:17;-2.60;99.90
19799;DHT22;10059;59.850;10.454;2022-12-18T05:49:44;-2.50;99.90
19799;DHT22;10059;59.850;10.454;2022-12-18T05:52:11;-2.50;99.90
19799;DHT22;10059;59.850;10.454;2022-12-18T05:54:37;-2.50;99.90
19799;DHT22;10059;59.850;10.454;2022-12-18T05:57:05;-2.40;99.90
19799;DHT22;10059;59.850;10.454;2022-12-18T05:59:33;-2.20;99.90
19799;DHT22;10059;59.850;10.454;2022-12-18T06:02:00;-2.10;99.90
19799;DHT22;10059;59.850;10.454;2022-12-18T06:04:27;-2.00;99.90
19799;DHT22;10059;59.850;10.454;2022-12-18T06:06:57;-1.90;99.90
19799;DHT22;10059;59.850;10.454;2022-12-18T06:09:24;-2.00;99.90
19799;DHT22;10059;59.850;10.454;2022-12-18T06:11:52;-2.00;99.90
19799;DHT22;10059;59.850;10.454;2022-12-18T06:14:19;-2.00;99.90
19799;DHT22;10059;59.850;10.454;2022-12-18T06:16:47;-2.10;99.90
19799;DHT22;10059;59.850;10.454;2022-12-18T06:19:15;-2.20;99.90
19799;DHT22;10059;59.850;10.454;2022-12-18T06:21:42;-2.10;99.90
19799;DHT22;10059;59.850;10.454;2022-12-18T06:24:09;-2.10;99.90
19799;DHT22;10059;59.850;10.454;2022-12-18T06:26:37;-2.30;99.90
19799;DHT22;10059;59.850;10.454;2022-12-18T06:29:05;-2.40;99.90
19799;DHT22;10059;59.850;10.454;2022-12-18T06:31:32;-2.70;99.90
19799;DHT22;10059;59.850;10.454;2022-12-18T06:34:02;-2.90;99.90
19799;DHT22;10059;59.850;10.454;2022-12-18T06:36:29;-3.20;99.90
19799;DHT22;10059;59.850;10.454;2022-12-18T06:38:56;-3.20;99.90
19799;DHT22;10059;59.850;10.454;2022-12-18T06:41:23;-3.10;99.90
19799;DHT22;10059;59.850;10.454;2022-12-18T06:43:50;-3.10;99.90
19799;DHT22;10059;59.850;10.454;2022-12-18T06:46:17;-3.20;99.90
19799;DHT22;10059;59.850;10.454;2022-12-18T06:48:47;-3.40;99.90
19799;DHT22;10059;59.850;10.454;2022-12-18T06:51:17;-3.40;99.90
19799;DHT22;10059;59.850;10.454;2022-12-18T06:53:44;-3.40;99.90
19799;DHT22;10059;59.850;10.454;2022-12-18T06:56:11;-3.40;99.90
19799;DHT22;10059;59.850;10.454;2022-12-18T06:58:38;-3.40;99.90
19799;DHT22;10059;59.850;10.454;2022-12-18T07:01:08;-3.40;99.90
19799;DHT22;10059;59.850;10.454;2022-12-18T07:03:35;-3.40;99.90
19799;DHT22;10059;59.850;10.454;2022-12-18T07:06:03;-3.50;99.90
19799;DHT22;10059;59.850;10.454;2022-12-18T07:08:32;-3.60;99.90
19799;DHT22;10059;59.850;10.454;2022-12-18T07:10:59;-3.50;99.90
19799;DHT22;10059;59.850;10.454;2022-12-18T07:13:29;-3.40;99.90
19799;DHT22;10059;59.850;10.454;2022-12-18T07:16:02;-3.50;99.90
19799;DHT22;10059;59.850;10.454;2022-12-18T07:18:29;-3.40;99.90
19799;DHT22;10059;59.850;10.454;2022-12-18T07:20:56;-3.30;99.90
19799;DHT22;10059;59.850;10.454;2022-12-18T07:23:23;-3.50;99.90
19799;DHT22;10059;59.850;10.454;2022-12-18T07:25:51;-3.60;99.90
19799;DHT22;10059;59.850;10.454;2022-12-18T07:28:18;-3.60;99.90
19799;DHT22;10059;59.850;10.454;2022-12-18T07:30:44;-3.40;99.90
19799;DHT22;10059;59.850;10.454;2022-12-18T07:33:11;-3.30;99.90
19799;DHT22;10059;59.850;10.454;2022-12-18T07:35:38;-3.40;99.90
19799;DHT22;10059;59.850;10.454;2022-12-18T07:38:05;-3.50;99.90
19799;DHT22;10059;59.850;10.454;2022-12-18T07:40:32;-3.40;99.90
19799;DHT22;10059;59.850;10.454;2022-12-18T07:43:00;-3.20;99.90
19799;DHT22;10059;59.850;10.454;2022-12-18T07:45:30;-3.30;99.90
19799;DHT22;10059;59.850;10.454;2022-12-18T07:47:57;-3.30;99.90
19799;DHT22;10059;59.850;10.454;2022-12-18T07:50:24;-3.30;99.90
19799;DHT22;10059;59.850;10.454;2022-12-18T07:52:50;-3.00;99.90
19799;DHT22;10059;59.850;10.454;2022-12-18T07:55:17;-2.80;99.90
19799;DHT22;10059;59.850;10.454;2022-12-18T07:57:44;-2.80;99.90
19799;DHT22;10059;59.850;10.454;2022-12-18T08:00:14;-2.70;99.90
19799;DHT22;10059;59.850;10.454;2022-12-18T08:02:41;-2.70;99.90
19799;DHT22;10059;59.850;10.454;2022-12-18T08:05:08;-2.80;99.90
19799;DHT22;10059;59.850;10.454;2022-12-18T08:07:35;-2.90;99.90
19799;DHT22;10059;59.850;10.454;2022-12-18T08:10:02;-2.90;99.90
19799;DHT22;10059;59.850;10.454;2022-12-18T08:12:29;-2.80;99.90
19799;DHT22;10059;59.850;10.454;2022-12-18T08:14:56;-2.80;99.90
19799;DHT22;10059;59.850;10.454;2022-12-18T08:17:24;-2.70;99.90
19799;DHT22;10059;59.850;10.454;2022-12-18T08:19:51;-2.70;99.90
19799;DHT22;10059;59.850;10.454;2022-12-18T08:22:18;-2.90;99.90
19799;DHT22;10059;59.850;10.454;2022-12-18T08:24:44;-2.90;99.90
19799;DHT22;10059;59.850;10.454;2022-12-18T08:27:11;-2.80;99.90
19799;DHT22;10059;59.850;10.454;2022-12-18T08:29:38;-2.80;99.90
19799;DHT22;10059;59.850;10.454;2022-12-18T08:32:05;-2.90;99.90
19799;DHT22;10059;59.850;10.454;2022-12-18T08:34:34;-2.90;99.90
19799;DHT22;10059;59.850;10.454;2022-12-18T08:37:00;-2.80;99.90
19799;DHT22;10059;59.850;10.454;2022-12-18T08:39:27;-2.70;99.90
19799;DHT22;10059;59.850;10.454;2022-12-18T08:41:54;-2.70;99.90
19799;DHT22;10059;59.850;10.454;2022-12-18T08:44:39;-2.60;99.90
19799;DHT22;10059;59.850;10.454;2022-12-18T08:47:07;-2.40;99.90
19799;DHT22;10059;59.850;10.454;2022-12-18T08:49:36;-2.50;99.90
19799;DHT22;10059;59.850;10.454;2022-12-18T08:52:03;-2.60;99.90
19799;DHT22;10059;59.850;10.454;2022-12-18T08:54:30;-2.50;99.90
19799;DHT22;10059;59.850;10.454;2022-12-18T08:56:57;-2.50;99.90
19799;DHT22;10059;59.850;10.454;2022-12-18T08:59:23;-2.60;99.90
19799;DHT22;10059;59.850;10.454;2022-12-18T09:01:53;-2.60;99.90
19799;DHT22;10059;59.850;10.454;2022-12-18T09:04:20;-2.50;99.90
19799;DHT22;10059;59.850;10.454;2022-12-18T09:06:49;-2.30;99.90
19799;DHT22;10059;59.850;10.454;2022-12-18T09:09:15;-2.40;99.90
19799;DHT22;10059;59.850;10.454;2022-12-18T09:11:42;-2.50;99.90
19799;DHT22;10059;59.850;10.454;2022-12-18T09:14:10;-2.70;99.90
19799;DHT22;10059;59.850;10.454;2022-12-18T09:16:36;-2.70;99.90
19799;DHT22;10059;59.850;10.454;2022-12-18T09:19:04;-2.60;99.90
19799;DHT22;10059;59.850;10.454;2022-12-18T09:21:33;-2.40;99.90
19799;DHT22;10059;59.850;10.454;2022-12-18T09:24:01;-2.20;99.90
19799;DHT22;10059;59.850;10.454;2022-12-18T09:26:28;-2.40;99.90
19799;DHT22;10059;59.850;10.454;2022-12-18T09:28:55;-2.60;99.90
19799;DHT22;10059;59.850;10.454;2022-12-18T09:31:23;-2.70;99.90
19799;DHT22;10059;59.850;10.454;2022-12-18T09:33:51;-2.40;99.90
19799;DHT22;10059;59.850;10.454;2022-12-18T09:36:18;-2.20;99.90
19799;DHT22;10059;59.850;10.454;2022-12-18T09:38:45;-1.80;99.90
19799;DHT22;10059;59.850;10.454;2022-12-18T09:41:36;-1.80;99.90
19799;DHT22;10059;59.850;10.454;2022-12-18T09:44:13;-2.10;99.90
19799;DHT22;10059;59.850;10.454;2022-12-18T09:46:44;-2.30;99.90
19799;DHT22;10059;59.850;10.454;2022-12-18T09:49:16;-2.50;99.90
19799;DHT22;10059;59.850;10.454;2022-12-18T09:51:46;-2.60;99.90
19799;DHT22;10059;59.850;10.454;2022-12-18T09:54:16;-2.40;99.90
19799;DHT22;10059;59.850;10.454;2022-12-18T09:56:46;-2.30;99.90
19799;DHT22;10059;59.850;10.454;2022-12-18T09:59:20;-2.10;99.90
19799;DHT22;10059;59.850;10.454;2022-12-18T10:01:47;-2.20;99.90
19799;DHT22;10059;59.850;10.454;2022-12-18T10:04:14;-2.20;99.90
19799;DHT22;10059;59.850;10.454;2022-12-18T10:06:46;-2.20;99.90
19799;DHT22;10059;59.850;10.454;2022-12-18T10:09:24;-1.90;99.90
19799;DHT22;10059;59.850;10.454;2022-12-18T10:12:01;-1.80;99.90
19799;DHT22;10059;59.850;10.454;2022-12-18T10:14:33;-1.90;99.90
19799;DHT22;10059;59.850;10.454;2022-12-18T10:17:12;-1.80;99.90
19799;DHT22;10059;59.850;10.454;2022-12-18T10:19:44;-1.80;99.90
19799;DHT22;10059;59.850;10.454;2022-12-18T10:22:23;-1.80;99.90
19799;DHT22;10059;59.850;10.454;2022-12-18T10:24:55;-1.80;99.90
19799;DHT22;10059;59.850;10.454;2022-12-18T10:27:28;-1.70;99.90
19799;DHT22;10059;59.850;10.454;2022-12-18T10:29:56;-1.50;99.90
19799;DHT22;10059;59.850;10.454;2022-12-18T10:32:25;-1.50;99.90
19799;DHT22;10059;59.850;10.454;2022-12-18T10:34:53;-1.50;99.90
19799;DHT22;10059;59.850;10.454;2022-12-18T10:37:22;-1.30;99.90
19799;DHT22;10059;59.850;10.454;2022-12-18T10:40:08;-0.80;99.90
19799;DHT22;10059;59.850;10.454;2022-12-18T10:42:37;-0.20;99.90
19799;DHT22;10059;59.850;10.454;2022-12-18T10:45:09;0.00;99.90
19799;DHT22;10059;59.850;10.454;2022-12-18T10:47:40;0.00;99.90
19799;DHT22;10059;59.850;10.454;2022-12-18T10:50:19;0.40;99.90
19799;DHT22;10059;59.850;10.454;2022-12-18T10:52:54;0.70;99.90
19799;DHT22;10059;59.850;10.454;2022-12-18T10:55:21;0.70;99.90
19799;DHT22;10059;59.850;10.454;2022-12-18T10:57:50;1.00;99.90
19799;DHT22;10059;59.850;10.454;2022-12-18T11:00:23;1.60;99.90
19799;DHT22;10059;59.850;10.454;2022-12-18T11:02:50;1.40;99.90
19799;DHT22;10059;59.850;10.454;2022-12-18T11:05:26;2.00;99.90
19799;DHT22;10059;59.850;10.454;2022-12-18T11:07:54;2.30;99.90
19799;DHT22;10059;59.850;10.454;2022-12-18T11:10:23;2.10;99.90
19799;DHT22;10059;59.850;10.454;2022-12-18T11:12:53;2.10;99.90
19799;DHT22;10059;59.850;10.454;2022-12-18T11:15:21;2.00;99.90
19799;DHT22;10059;59.850;10.454;2022-12-18T11:17:51;2.40;99.90
19799;DHT22;10059;59.850;10.454;2022-12-18T11:20:27;2.90;99.90
19799;DHT22;10059;59.850;10.454;2022-12-18T11:22:58;2.80;99.90
19799;DHT22;10059;59.850;10.454;2022-12-18T11:25:25;2.20;99.90
19799;DHT22;10059;59.850;10.454;2022-12-18T11:27:55;1.40;99.90
19799;DHT22;10059;59.850;10.454;2022-12-18T11:30:26;0.70;99.90
19799;DHT22;10059;59.850;10.454;2022-12-18T11:32:56;0.70;99.90
19799;DHT22;10059;59.850;10.454;2022-12-18T11:35:34;0.70;99.90
19799;DHT22;10059;59.850;10.454;2022-12-18T11:38:06;0.40;99.90
19799;DHT22;10059;59.850;10.454;2022-12-18T11:40:41;0.40;99.90
19799;DHT22;10059;59.850;10.454;2022-12-18T11:43:13;0.50;99.90
19799;DHT22;10059;59.850;10.454;2022-12-18T11:45:45;0.60;99.90
19799;DHT22;10059;59.850;10.454;2022-12-18T11:48:17;0.60;99.90
19799;DHT22;10059;59.850;10.454;2022-12-18T11:50:49;0.70;99.90
19799;DHT22;10059;59.850;10.454;2022-12-18T11:53:17;0.60;99.90
19799;DHT22;10059;59.850;10.454;2022-12-18T11:55:54;0.60;99.90
19799;DHT22;10059;59.850;10.454;2022-12-18T11:58:36;0.70;99.90
19799;DHT22;10059;59.850;10.454;2022-12-18T12:01:14;0.70;99.90
19799;DHT22;10059;59.850;10.454;2022-12-18T12:04:15;0.60;99.90
19799;DHT22;10059;59.850;10.454;2022-12-18T12:06:48;0.60;99.90
19799;DHT22;10059;59.850;10.454;2022-12-18T12:09:21;0.50;99.90
19799;DHT22;10059;59.850;10.454;2022-12-18T12:12:03;0.40;99.90
19799;DHT22;10059;59.850;10.454;2022-12-18T12:14:44;0.30;99.90
19799;DHT22;10059;59.850;10.454;2022-12-18T12:17:18;0.40;99.90
19799;DHT22;10059;59.850;10.454;2022-12-18T12:19:52;0.30;99.90
19799;DHT22;10059;59.850;10.454;2022-12-18T12:22:27;0.30;99.90
19799;DHT22;10059;59.850;10.454;2022-12-18T12:25:05;0.40;99.90
19799;DHT22;10059;59.850;10.454;2022-12-18T12:27:43;0.60;99.90
19799;DHT22;10059;59.850;10.454;2022-12-18T12:30:18;0.70;99.90
19799;DHT22;10059;59.850;10.454;2022-12-18T12:32:58;0.70;99.90
19799;DHT22;10059;59.850;10.454;2022-12-18T12:35:36;0.70;99.90
19799;DHT22;10059;59.850;10.454;2022-12-18T12:38:09;0.70;99.90
19799;DHT22;10059;59.850;10.454;2022-12-18T12:40:41;0.60;99.90
19799;DHT22;10059;59.850;10.454;2022-12-18T12:46:03;0.70;99.90
19799;DHT22;10059;59.850;10.454;2022-12-18T12:48:40;0.60;99.90
19799;DHT22;10059;59.850;10.454;2022-12-18T12:51:13;0.50;99.90
19799;DHT22;10059;59.850;10.454;2022-12-18T12:53:41;0.40;99.90
19799;DHT22;10059;59.850;10.454;2022-12-18T12:56:11;0.40;99.90
19799;DHT22;10059;59.850;10.454;2022-12-18T12:58:52;0.50;99.90
19799;DHT22;10059;59.850;10.454;2022-12-18T13:01:30;0.30;99.90
19799;DHT22;10059;59.850;10.454;2022-12-18T13:04:06;0.30;99.90
19799;DHT22;10059;59.850;10.454;2022-12-18T13:06:42;0.30;99.90
19799;DHT22;10059;59.850;10.454;2022-12-18T13:09:10;0.20;99.90
19799;DHT22;10059;59.850;10.454;2022-12-18T13:11:39;0.20;99.90
19799;DHT22;10059;59.850;10.454;2022-12-18T13:14:30;0.30;99.90
19799;DHT22;10059;59.850;10.454;2022-12-18T13:17:31;0.40;99.90
19799;DHT22;10059;59.850;10.454;2022-12-18T13:20:10;0.40;99.90
19799;DHT22;10059;59.850;10.454;2022-12-18T13:22:40;0.20;99.90
19799;DHT22;10059;59.850;10.454;2022-12-18T13:25:32;0.00;99.90
19799;DHT22;10059;59.850;10.454;2022-12-18T13:28:11;0.00;99.90
19799;DHT22;10059;59.850;10.454;2022-12-18T13:30:47;0.00;99.90
19799;DHT22;10059;59.850;10.454;2022-12-18T13:33:48;0.00;99.90
19799;DHT22;10059;59.850;10.454;2022-12-18T13:36:30;-0.10;99.90
19799;DHT22;10059;59.850;10.454;2022-12-18T13:42:38;-0.50;99.90
19799;DHT22;10059;59.850;10.454;2022-12-18T13:45:38;-0.80;99.90
19799;DHT22;10059;59.850;10.454;2022-12-18T13:48:18;-0.80;99.90
19799;DHT22;10059;59.850;10.454;2022-12-18T13:50:53;-0.90;99.90
19799;DHT22;10059;59.850;10.454;2022-12-18T13:53:23;-1.20;99.90
19799;DHT22;10059;59.850;10.454;2022-12-18T13:55:51;-1.20;99.90
19799;DHT22;10059;59.850;10.454;2022-12-18T13:58:18;-1.20;99.90
19799;DHT22;10059;59.850;10.454;2022-12-18T14:00:45;-1.20;99.90
19799;DHT22;10059;59.850;10.454;2022-12-18T14:03:18;-1.20;99.90
19799;DHT22;10059;59.850;10.454;2022-12-18T14:05:45;-1.10;99.90
19799;DHT22;10059;59.850;10.454;2022-12-18T14:08:20;-0.90;99.90
19799;DHT22;10059;59.850;10.454;2022-12-18T14:10:49;-0.70;99.90
19799;DHT22;10059;59.850;10.454;2022-12-18T14:13:22;-0.50;99.90
19799;DHT22;10059;59.850;10.454;2022-12-18T14:15:50;-0.30;99.90
19799;DHT22;10059;59.850;10.454;2022-12-18T14:18:20;-0.20;99.90
19799;DHT22;10059;59.850;10.454;2022-12-18T14:20:49;-0.20;99.90
19799;DHT22;10059;59.850;10.454;2022-12-18T14:23:32;-0.20;99.90
19799;DHT22;10059;59.850;10.454;2022-12-18T14:25:59;-0.20;99.90
19799;DHT22;10059;59.850;10.454;2022-12-18T14:28:26;-0.20;99.90
19799;DHT22;10059;59.850;10.454;2022-12-18T14:30:54;-0.30;99.90
19799;DHT22;10059;59.850;10.454;2022-12-18T14:33:23;-0.30;99.90
19799;DHT22;10059;59.850;10.454;2022-12-18T14:35:56;-0.20;99.90
19799;DHT22;10059;59.850;10.454;2022-12-18T14:38:29;-0.20;99.90
19799;DHT22;10059;59.850;10.454;2022-12-18T14:41:02;-0.10;99.90
19799;DHT22;10059;59.850;10.454;2022-12-18T14:43:31;0.00;99.90
19799;DHT22;10059;59.850;10.454;2022-12-18T14:45:59;0.10;99.90
19799;DHT22;10059;59.850;10.454;2022-12-18T14:48:35;0.10;99.90
19799;DHT22;10059;59.850;10.454;2022-12-18T14:51:04;0.10;99.90
19799;DHT22;10059;59.850;10.454;2022-12-18T14:53:37;0.10;99.90
19799;DHT22;10059;59.850;10.454;2022-12-18T14:56:14;-0.20;99.90
19799;DHT22;10059;59.850;10.454;2022-12-18T14:58:48;-0.40;99.90
19799;DHT22;10059;59.850;10.454;2022-12-18T15:01:27;-0.80;99.90
19799;DHT22;10059;59.850;10.454;2022-12-18T15:03:55;-1.30;99.90
19799;DHT22;10059;59.850;10.454;2022-12-18T15:06:30;-1.40;99.90
19799;DHT22;10059;59.850;10.454;2022-12-18T15:08:58;-1.50;99.90
19799;DHT22;10059;59.850;10.454;2022-12-18T15:11:29;-1.50;99.90
19799;DHT22;10059;59.850;10.454;2022-12-18T15:13:58;-1.80;99.90
19799;DHT22;10059;59.850;10.454;2022-12-18T15:16:26;-2.10;99.90
19799;DHT22;10059;59.850;10.454;2022-12-18T15:18:53;-2.10;99.90
19799;DHT22;10059;59.850;10.454;2022-12-18T15:21:21;-2.20;99.90
19799;DHT22;10059;59.850;10.454;2022-12-18T15:23:49;-2.20;99.90
19799;DHT22;10059;59.850;10.454;2022-12-18T15:26:18;-2.20;99.90
19799;DHT22;10059;59.850;10.454;2022-12-18T15:28:48;-2.20;99.90
19799;DHT22;10059;59.850;10.454;2022-12-18T15:31:29;-2.30;99.90
19799;DHT22;10059;59.850;10.454;2022-12-18T15:34:09;-2.20;99.90
19799;DHT22;10059;59.850;10.454;2022-12-18T15:36:37;-2.10;99.90
19799;DHT22;10059;59.850;10.454;2022-12-18T15:39:05;-2.20;99.90
19799;DHT22;10059;59.850;10.454;2022-12-18T15:41:33;-2.40;99.90
19799;DHT22;10059;59.850;10.454;2022-12-18T15:44:03;-2.60;99.90
19799;DHT22;10059;59.850;10.454;2022-12-18T15:46:41;-2.60;99.90